Time;durP1;ratioP1;P1;durP2;ratioP2;P2;SDS_P1;SDS_P2;PMS_P1;PMS_P2;Temp;Humidity;BMP_temperature;BMP_pressure;BME280_temperature;BME280_humidity;BME280_pressure;Samples;Min_cycle;Max_cycle;Signal;HPM_P1;HPM_P2
2022/09/12 00:01:18;;;;;;;1.45;1.20;;;22.60;64.50;;;;;;5021058;28;44026;-58
2022/09/12 00:03:46;;;;;;;1.25;1.25;;;22.60;64.50;;;;;;5013653;28;44191;-57
2022/09/12 00:06:29;;;;;;;1.45;1.08;;;22.60;64.50;;;;;;5022175;28;43581;-58
2022/09/12 00:09:00;;;;;;;0.90;0.90;;;22.60;64.50;;;;;;5021644;28;43507;-58
2022/09/12 00:11:28;;;;;;;1.10;1.00;;;22.60;64.50;;;;;;5021266;28;44756;-58
2022/09/12 00:13:58;;;;;;;1.10;1.10;;;22.60;64.50;;;;;;5021840;28;43439;-58
2022/09/12 00:16:28;;;;;;;1.48;1.40;;;22.60;64.60;;;;;;5021577;28;44014;-58
2022/09/12 00:18:56;;;;;;;1.20;1.20;;;22.50;64.50;;;;;;5021772;28;43414;-58
2022/09/12 00:21:24;;;;;;;1.50;1.00;;;22.50;64.50;;;;;;5012655;28;44706;-57
2022/09/12 00:23:52;;;;;;;1.00;1.00;;;22.60;64.50;;;;;;5053668;28;43439;-58
2022/09/12 00:26:20;;;;;;;1.17;1.17;;;22.50;64.50;;;;;;5021669;28;43465;-57
2022/09/12 00:28:48;;;;;;;1.30;1.25;;;22.50;64.50;;;;;;5021430;28;43458;-58
2022/09/12 00:31:19;;;;;;;0.93;0.93;;;22.50;64.40;;;;;;5022119;28;43676;-58
2022/09/12 00:33:46;;;;;;;1.00;1.00;;;22.50;64.40;;;;;;5021540;28;43919;-58
2022/09/12 00:36:20;;;;;;;1.20;1.20;;;22.50;64.50;;;;;;5021390;28;43429;-58
2022/09/12 00:38:49;;;;;;;1.10;1.10;;;22.50;64.40;;;;;;5021400;28;43411;-58
2022/09/12 00:41:20;;;;;;;1.15;1.15;;;22.50;64.50;;;;;;5022035;28;43796;-57
2022/09/12 00:43:50;;;;;;;1.15;1.15;;;22.40;64.40;;;;;;5021050;28;43516;-58
2022/09/12 00:46:27;;;;;;;1.10;1.10;;;22.50;64.50;;;;;;5021324;28;43316;-58
2022/09/12 00:49:14;;;;;;;1.00;1.00;;;22.50;64.50;;;;;;5012082;28;43393;-58
2022/09/12 00:51:49;;;;;;;1.10;1.10;;;22.50;64.50;;;;;;5020962;28;44709;-58
2022/09/12 00:54:22;;;;;;;1.00;1.00;;;22.40;64.50;;;;;;5023165;28;43458;-58
2022/09/12 00:56:54;;;;;;;1.27;1.10;;;22.40;64.50;;;;;;5044267;28;43449;-58
2022/09/12 00:59:29;;;;;;;1.40;1.17;;;22.40;64.50;;;;;;5027356;28;43408;-58
2022/09/12 01:01:56;;;;;;;0.77;0.77;;;22.40;64.50;;;;;;5025159;28;43792;-58
2022/09/12 01:04:26;;;;;;;1.02;1.02;;;22.40;64.50;;;;;;5024490;28;43489;-58
2022/09/12 01:06:56;;;;;;;1.33;1.20;;;22.40;64.50;;;;;;5024775;28;43478;-58
2022/09/12 01:09:24;;;;;;;0.82;0.82;;;22.40;64.50;;;;;;5024374;28;43395;-58
2022/09/12 01:11:52;;;;;;;0.90;0.90;;;22.40;64.50;;;;;;5024105;28;44049;-58
2022/09/12 01:14:20;;;;;;;1.10;1.00;;;22.40;64.50;;;;;;5024460;28;44124;-58
2022/09/12 01:16:49;;;;;;;1.63;1.08;;;22.30;64.50;;;;;;5023323;28;43437;-58
2022/09/12 01:19:35;;;;;;;0.82;0.82;;;22.40;64.50;;;;;;5024281;28;43574;-58
2022/09/12 01:22:24;;;;;;;1.45;0.98;;;22.30;64.40;;;;;;5024210;28;43760;-58
2022/09/12 01:25:08;;;;;;;0.95;0.95;;;22.30;64.50;;;;;;5023801;28;43413;-58
2022/09/12 01:27:56;;;;;;;1.20;1.20;;;22.30;64.50;;;;;;5024715;28;43816;-58
2022/09/12 01:30:29;;;;;;;1.00;1.00;;;22.30;64.50;;;;;;5022415;28;43422;-58
2022/09/12 01:33:02;;;;;;;1.20;1.05;;;22.30;64.50;;;;;;5024192;28;43889;-58
2022/09/12 01:35:30;;;;;;;1.10;1.10;;;22.30;64.50;;;;;;5023461;28;43639;-58
2022/09/12 01:38:12;;;;;;;0.95;0.95;;;22.30;64.50;;;;;;5024668;28;43403;-58
2022/09/12 01:41:09;;;;;;;1.10;1.10;;;22.30;64.60;;;;;;5024191;28;43435;-58
2022/09/12 01:43:53;;;;;;;1.67;0.85;;;22.30;64.50;;;;;;5023385;28;43797;-57
2022/09/12 01:46:47;;;;;;;0.98;0.95;;;22.30;64.50;;;;;;5023420;28;43447;-57
2022/09/12 01:49:25;;;;;;;1.20;1.00;;;22.20;64.50;;;;;;5024468;28;43454;-58
2022/09/12 01:52:03;;;;;;;1.05;1.05;;;22.20;64.50;;;;;;5017414;28;43573;-58
2022/09/12 01:54:53;;;;;;;1.10;1.10;;;22.20;64.50;;;;;;5023522;28;44646;-58
2022/09/12 01:57:26;;;;;;;1.00;1.00;;;22.20;64.40;;;;;;5023884;28;43451;-58
2022/09/12 01:59:59;;;;;;;1.00;1.00;;;22.20;64.50;;;;;;5024159;28;43435;-58
2022/09/12 02:02:39;;;;;;;1.30;0.80;;;22.20;64.50;;;;;;5024615;28;43464;-58
2022/09/12 02:05:31;;;;;;;1.30;1.20;;;22.20;64.50;;;;;;5023822;28;43813;-57
2022/09/12 02:08:16;;;;;;;0.95;0.95;;;22.10;64.50;;;;;;5022811;28;43512;-58
2022/09/12 02:11:07;;;;;;;0.90;0.90;;;22.20;64.50;;;;;;5023577;28;43413;-58
2022/09/12 02:13:40;;;;;;;;;;;22.10;64.40;;;;;;5017115;28;44008;-58
2022/09/12 02:16:41;;;;;;;1.48;0.98;;;22.10;64.50;;;;;;5014093;28;43905;-58
2022/09/12 02:19:14;;;;;;;0.90;0.90;;;22.10;64.50;;;;;;5023601;28;43891;-58
2022/09/12 02:21:49;;;;;;;0.80;0.80;;;22.10;64.60;;;;;;5023185;28;43436;-58
2022/09/12 02:24:18;;;;;;;0.75;0.75;;;22.10;64.50;;;;;;5022115;28;43443;-58
2022/09/12 02:26:53;;;;;;;1.20;1.10;;;22.10;64.50;;;;;;5022601;28;44897;-58
2022/09/12 02:29:21;;;;;;;0.98;0.98;;;22.10;64.50;;;;;;5010823;28;43417;-58
2022/09/12 02:32:07;;;;;;;1.02;1.02;;;22.10;64.50;;;;;;5022341;28;43403;-57
2022/09/12 02:34:57;;;;;;;0.80;0.80;;;22.10;64.50;;;;;;5023642;28;43525;-58
2022/09/12 02:37:50;;;;;;;0.93;0.93;;;22.10;64.50;;;;;;5011656;28;43995;-58
2022/09/12 02:40:17;;;;;;;0.90;0.90;;;22.10;64.50;;;;;;5023468;28;43898;-58
2022/09/12 02:42:45;;;;;;;1.10;1.10;;;22.00;64.50;;;;;;5022501;28;43506;-58
2022/09/12 02:45:13;;;;;;;0.90;0.90;;;22.00;64.50;;;;;;5023139;28;43534;-58
2022/09/12 02:47:52;;;;;;;0.90;0.90;;;22.00;64.50;;;;;;5023236;28;43804;-58
2022/09/12 02:50:19;;;;;;;0.80;0.80;;;22.00;64.50;;;;;;5019695;28;43994;-58
2022/09/12 02:52:47;;;;;;;1.00;1.00;;;22.00;64.50;;;;;;5021667;28;43424;-57
2022/09/12 02:55:16;;;;;;;0.82;0.82;;;22.00;64.50;;;;;;5022746;28;43471;-58
2022/09/12 02:57:43;;;;;;;1.10;1.10;;;22.00;64.50;;;;;;5023440;28;43993;-58
2022/09/12 03:00:11;;;;;;;1.63;1.10;;;22.00;64.50;;;;;;5023016;28;43373;-58
2022/09/12 03:03:05;;;;;;;0.73;0.73;;;22.00;64.50;;;;;;5019222;28;43438;-58
2022/09/12 03:05:35;;;;;;;0.77;0.70;;;21.90;64.50;;;;;;5028203;28;43642;-58
2022/09/12 03:08:06;;;;;;;0.90;0.90;;;21.90;64.50;;;;;;5022837;28;43907;-57
2022/09/12 03:11:01;;;;;;;0.90;0.90;;;21.90;64.50;;;;;;5017034;28;43430;-58
2022/09/12 03:14:13;;;;;;;1.00;1.00;;;21.90;64.50;;;;;;5022871;28;43383;-58
2022/09/12 03:17:09;;;;;;;0.98;0.98;;;21.90;64.50;;;;;;5019860;28;43590;-58
2022/09/12 03:19:54;;;;;;;1.08;1.08;;;21.90;64.60;;;;;;5054553;28;45884;-58
2022/09/12 03:22:36;;;;;;;0.85;0.85;;;21.90;64.60;;;;;;5021518;28;43456;-58
2022/09/12 03:25:34;;;;;;;0.98;0.98;;;21.90;64.60;;;;;;5022079;28;43513;-58
2022/09/12 03:28:07;;;;;;;1.05;0.95;;;21.90;64.60;;;;;;5022488;28;43452;-58
2022/09/12 03:30:43;;;;;;;1.55;1.00;;;21.90;64.60;;;;;;5022757;28;43885;-58
2022/09/12 03:33:17;;;;;;;0.93;0.93;;;21.90;64.50;;;;;;5022502;28;43403;-57
2022/09/12 03:35:46;;;;;;;0.85;0.85;;;21.80;64.50;;;;;;5019925;28;43481;-58
2022/09/12 03:38:13;;;;;;;1.00;1.00;;;21.80;64.60;;;;;;5022848;28;43419;-57
2022/09/12 03:40:41;;;;;;;0.90;0.90;;;21.80;64.60;;;;;;5022055;28;44715;-57
2022/09/12 03:43:09;;;;;;;1.08;1.00;;;21.80;64.60;;;;;;5022409;28;43482;-58
2022/09/12 03:45:37;;;;;;;1.08;1.08;;;21.80;64.50;;;;;;5020016;28;43501;-58
2022/09/12 03:48:05;;;;;;;0.90;0.90;;;21.80;64.50;;;;;;5022375;28;43585;-58
2022/09/12 03:50:33;;;;;;;1.10;1.10;;;21.80;64.50;;;;;;5022523;28;44063;-58
2022/09/12 03:53:02;;;;;;;1.10;1.05;;;21.80;64.60;;;;;;5020927;28;43432;-58
2022/09/12 03:55:30;;;;;;;1.00;1.00;;;21.80;64.60;;;;;;5021647;28;43483;-58
2022/09/12 03:57:57;;;;;;;0.90;0.90;;;21.80;64.60;;;;;;5024317;28;43479;-58
2022/09/12 04:00:24;;;;;;;1.20;1.20;;;21.80;64.60;;;;;;5022020;28;43901;-58
2022/09/12 04:02:54;;;;;;;1.10;1.08;;;21.80;64.60;;;;;;5021882;28;43417;-58
2022/09/12 04:05:24;;;;;;;1.10;1.10;;;21.80;64.60;;;;;;5022182;28;43379;-58
2022/09/12 04:07:51;;;;;;;0.95;0.95;;;21.70;64.50;;;;;;5021427;28;43420;-57
2022/09/12 04:10:19;;;;;;;1.08;1.00;;;21.70;64.60;;;;;;5021828;28;44172;-57
2022/09/12 04:12:46;;;;;;;1.00;1.00;;;21.70;64.60;;;;;;5021979;28;43474;-58
2022/09/12 04:15:14;;;;;;;1.20;1.08;;;21.70;64.50;;;;;;5021688;28;43484;-58
2022/09/12 04:17:41;;;;;;;1.50;1.40;;;21.70;64.50;;;;;;5054298;28;43492;-58
2022/09/12 04:20:09;;;;;;;1.25;1.20;;;21.70;64.60;;;;;;5020518;28;44772;-58
2022/09/12 04:22:36;;;;;;;1.17;1.17;;;21.70;64.60;;;;;;5020773;28;43420;-58
2022/09/12 04:25:04;;;;;;;1.23;1.13;;;21.70;64.60;;;;;;5021513;28;43420;-58
2022/09/12 04:27:32;;;;;;;1.40;1.10;;;21.70;64.60;;;;;;5021840;28;43490;-58
2022/09/12 04:30:01;;;;;;;1.20;1.17;;;21.70;64.60;;;;;;5024258;28;44774;-58
2022/09/12 04:32:30;;;;;;;1.17;1.17;;;21.70;64.50;;;;;;5025522;28;43495;-58
2022/09/12 04:34:57;;;;;;;1.15;1.15;;;21.70;64.50;;;;;;5024810;28;43439;-57
2022/09/12 04:37:25;;;;;;;2.88;1.20;;;21.70;64.50;;;;;;5025362;28;43479;-58
2022/09/12 04:39:56;;;;;;;1.67;1.20;;;21.70;64.50;;;;;;5024945;28;43909;-58
2022/09/12 04:42:24;;;;;;;1.10;1.10;;;21.70;64.50;;;;;;5024942;28;43412;-58
2022/09/12 04:44:51;;;;;;;1.17;1.17;;;21.60;64.50;;;;;;5024800;28;43436;-58
2022/09/12 04:47:19;;;;;;;1.30;0.90;;;21.60;64.50;;;;;;5024348;28;43482;-58
2022/09/12 04:49:49;;;;;;;1.02;1.00;;;21.70;64.60;;;;;;5023302;28;46198;-58
2022/09/12 04:52:17;;;;;;;1.33;1.13;;;21.60;64.50;;;;;;5024645;28;43443;-57
2022/09/12 04:54:44;;;;;;;1.10;1.10;;;21.60;64.50;;;;;;5022506;28;43439;-59
2022/09/12 04:57:12;;;;;;;0.82;0.82;;;21.60;64.50;;;;;;5024578;28;43462;-58
2022/09/12 04:59:39;;;;;;;1.10;1.10;;;21.60;64.60;;;;;;5026706;28;44709;-58
2022/09/12 05:02:07;;;;;;;1.45;1.35;;;21.60;64.60;;;;;;5024381;28;43809;-58
2022/09/12 05:04:34;;;;;;;0.93;0.93;;;21.60;64.50;;;;;;5024498;28;43466;-58
2022/09/12 05:07:02;;;;;;;1.15;1.15;;;21.60;64.60;;;;;;5024924;28;43474;-58
2022/09/12 05:09:29;;;;;;;1.10;1.10;;;21.60;64.60;;;;;;5023776;28;43934;-58
2022/09/12 05:11:58;;;;;;;1.30;1.00;;;21.60;64.60;;;;;;5024445;28;43750;-58
2022/09/12 05:14:31;;;;;;;1.08;1.08;;;21.60;64.60;;;;;;5025060;28;43368;-58
2022/09/12 05:17:00;;;;;;;1.20;1.10;;;21.50;64.60;;;;;;5024209;28;43597;-58
2022/09/12 05:19:29;;;;;;;1.20;1.13;;;21.60;64.60;;;;;;5022986;28;44069;-58
2022/09/12 05:21:58;;;;;;;1.00;1.00;;;21.60;64.60;;;;;;5024599;28;43961;-58
2022/09/12 05:24:26;;;;;;;0.98;0.98;;;21.60;64.60;;;;;;5024592;28;43400;-58
2022/09/12 05:26:53;;;;;;;1.20;1.20;;;21.60;64.60;;;;;;5023823;28;43425;-58
2022/09/12 05:29:21;;;;;;;1.00;1.00;;;21.60;64.60;;;;;;5023920;28;44694;-58
2022/09/12 05:31:50;;;;;;;1.40;1.30;;;21.60;64.50;;;;;;5023911;28;43582;-58
2022/09/12 05:34:19;;;;;;;1.23;1.13;;;21.50;64.50;;;;;;5024616;28;43340;-57
2022/09/12 05:36:47;;;;;;;1.10;1.10;;;21.50;64.50;;;;;;5023958;28;43509;-58
2022/09/12 05:39:14;;;;;;;1.20;1.17;;;21.50;64.50;;;;;;5023749;28;43793;-58
2022/09/12 05:41:42;;;;;;;1.13;1.10;;;21.60;64.60;;;;;;5023827;28;43402;-58
2022/09/12 05:44:13;;;;;;;1.00;1.00;;;21.50;64.50;;;;;;5024862;28;43358;-58
2022/09/12 05:46:43;;;;;;;1.23;1.20;;;21.60;64.60;;;;;;5023751;28;43857;-58
2022/09/12 05:49:12;;;;;;;1.10;1.10;;;21.50;64.60;;;;;;5024630;28;44711;-58
2022/09/12 05:51:42;;;;;;;1.10;1.10;;;21.50;64.60;;;;;;5024391;28;43687;-57
2022/09/12 05:54:12;;;;;;;1.30;1.30;;;21.50;64.60;;;;;;5024602;28;43425;-58
2022/09/12 05:56:41;;;;;;;1.15;1.10;;;21.50;64.60;;;;;;5016391;28;43513;-58
2022/09/12 05:59:13;;;;;;;1.30;1.20;;;21.50;64.60;;;;;;5025711;28;43943;-58
2022/09/12 06:01:41;;;;;;;1.55;1.45;;;21.50;64.60;;;;;;5012400;28;43425;-58
2022/09/12 06:04:10;;;;;;;1.20;1.20;;;21.50;64.60;;;;;;5024109;28;43407;-58
2022/09/12 06:06:43;;;;;;;1.20;1.10;;;21.50;64.60;;;;;;5023134;28;43497;-59
2022/09/12 06:09:13;;;;;;;1.30;1.20;;;21.50;64.60;;;;;;5024090;28;44956;-58
2022/09/12 06:11:41;;;;;;;1.00;1.00;;;21.50;64.60;;;;;;5024036;28;44022;-58
2022/09/12 06:14:10;;;;;;;1.25;1.25;;;21.50;64.60;;;;;;5022549;28;43404;-58
2022/09/12 06:16:38;;;;;;;1.40;1.30;;;21.50;64.60;;;;;;5022385;28;43477;-58
2022/09/12 06:19:17;;;;;;;1.10;1.10;;;21.50;64.60;;;;;;5023480;28;43791;-58
2022/09/12 06:21:47;;;;;;;1.20;1.20;;;21.50;64.70;;;;;;5023228;28;43412;-58
2022/09/12 06:24:16;;;;;;;1.40;1.30;;;21.50;64.70;;;;;;5024202;28;43434;-58
2022/09/12 06:26:44;;;;;;;1.25;1.20;;;21.50;64.70;;;;;;5022950;28;43413;-58
2022/09/12 06:29:12;;;;;;;1.30;1.30;;;21.50;64.70;;;;;;5055803;28;44771;-57
2022/09/12 06:31:41;;;;;;;1.25;1.25;;;21.50;64.60;;;;;;5019291;28;43474;-57
2022/09/12 06:34:11;;;;;;;1.52;1.35;;;21.50;64.70;;;;;;5022553;28;43423;-57
2022/09/12 06:36:41;;;;;;;1.20;1.20;;;21.50;64.70;;;;;;5021328;28;43490;-58
2022/09/12 06:39:16;;;;;;;1.05;1.05;;;21.40;64.70;;;;;;5022517;28;43772;-57
2022/09/12 06:41:44;;;;;;;2.17;1.40;;;21.50;64.80;;;;;;5019749;28;44315;-57
2022/09/12 06:44:17;;;;;;;1.10;1.10;;;21.40;64.80;;;;;;5020599;28;43411;-57
2022/09/12 06:46:44;;;;;;;1.10;1.10;;;21.40;64.80;;;;;;5022003;28;43442;-57
2022/09/12 06:49:13;;;;;;;1.23;1.23;;;21.40;64.80;;;;;;5017990;28;43611;-57
2022/09/12 06:51:43;;;;;;;1.10;1.10;;;21.50;64.90;;;;;;5046514;28;44199;-57
2022/09/12 06:54:13;;;;;;;1.10;1.10;;;21.50;64.90;;;;;;5022745;28;43523;-57
2022/09/12 06:56:41;;;;;;;1.33;1.30;;;21.40;64.80;;;;;;5020535;28;43528;-57
2022/09/12 06:59:08;;;;;;;1.73;1.30;;;21.50;64.90;;;;;;5022053;28;44776;-57
2022/09/12 07:01:36;;;;;;;2.17;1.98;;;21.50;64.90;;;;;;5021635;28;43363;-57
2022/09/12 07:04:04;;;;;;;1.20;1.20;;;21.50;64.90;;;;;;5022613;28;43713;-57
2022/09/12 07:06:37;;;;;;;1.45;1.35;;;21.50;65.00;;;;;;5009895;28;43556;-58
2022/09/12 07:09:08;;;;;;;1.40;1.30;;;21.50;64.90;;;;;;5022903;28;44665;-57
2022/09/12 07:11:36;;;;;;;;;;;21.50;64.90;;;;;;5021531;28;43400;-57
2022/09/12 07:14:05;;;;;;;1.35;1.35;;;21.50;64.90;;;;;;5021523;28;43436;-59
2022/09/12 07:16:36;;;;;;;1.83;1.73;;;21.40;64.90;;;;;;5020710;28;43460;-57
2022/09/12 07:19:06;;;;;;;1.40;1.30;;;21.40;65.00;;;;;;5022516;28;43740;-57
2022/09/12 07:21:38;;;;;;;1.58;1.48;;;21.50;65.00;;;;;;5022920;28;44049;-57
2022/09/12 07:24:08;;;;;;;1.90;1.52;;;21.50;65.00;;;;;;5054185;28;43426;-57
2022/09/12 07:26:38;;;;;;;1.60;1.50;;;21.50;64.90;;;;;;5022084;28;43481;-57
2022/09/12 07:29:09;;;;;;;1.30;1.30;;;21.40;64.90;;;;;;5022422;28;44078;-57
2022/09/12 07:31:56;;;;;;;1.55;1.50;;;21.50;64.90;;;;;;5021366;28;43371;-57
2022/09/12 07:34:24;;;;;;;1.73;1.63;;;21.40;65.00;;;;;;5022674;28;43383;-57
2022/09/12 07:36:51;;;;;;;1.80;1.70;;;21.40;65.00;;;;;;5022058;28;43500;-57
2022/09/12 07:39:19;;;;;;;1.45;1.38;;;21.40;65.00;;;;;;5022379;28;45124;-57
2022/09/12 07:41:46;;;;;;;1.50;1.50;;;21.40;64.90;;;;;;5021870;28;43410;-57
2022/09/12 07:44:13;;;;;;;1.45;1.35;;;21.50;65.00;;;;;;5023017;28;44003;-57
2022/09/12 07:46:41;;;;;;;2.80;1.67;;;21.50;65.00;;;;;;5021334;28;43457;-57
2022/09/12 07:49:11;;;;;;;1.20;1.20;;;21.50;65.00;;;;;;5022721;28;44088;-57
2022/09/12 07:51:39;;;;;;;1.60;1.50;;;21.50;64.90;;;;;;5022025;28;43431;-57
2022/09/12 07:54:08;;;;;;;2.17;1.48;;;21.50;65.00;;;;;;5022518;28;43434;-57
2022/09/12 07:56:37;;;;;;;1.67;1.57;;;21.50;65.00;;;;;;5021844;28;43727;-57
2022/09/12 07:59:09;;;;;;;1.58;1.48;;;21.50;65.00;;;;;;5023892;28;44057;-57
2022/09/12 08:01:38;;;;;;;1.90;1.80;;;21.40;65.00;;;;;;5009396;28;43707;-57
2022/09/12 08:04:06;;;;;;;1.73;1.63;;;21.50;65.00;;;;;;5021958;28;43458;-57
2022/09/12 08:06:35;;;;;;;1.73;1.63;;;21.40;65.00;;;;;;5021441;28;43463;-57
2022/09/12 08:09:03;;;;;;;1.70;1.60;;;21.40;65.00;;;;;;5021831;28;43825;-57
2022/09/12 08:11:31;;;;;;;1.85;1.75;;;21.50;65.00;;;;;;5022216;28;43488;-57
2022/09/12 08:14:00;;;;;;;1.83;1.58;;;21.40;65.00;;;;;;5021760;28;43399;-57
2022/09/12 08:16:31;;;;;;;2.00;1.90;;;21.50;65.00;;;;;;5021785;28;44041;-57
2022/09/12 08:19:01;;;;;;;2.03;1.92;;;21.50;65.00;;;;;;5021997;28;43798;-57
2022/09/12 08:21:30;;;;;;;1.90;1.80;;;21.40;65.00;;;;;;5021722;28;43815;-57
2022/09/12 08:24:00;;;;;;;1.90;1.80;;;21.50;65.10;;;;;;5022119;28;43479;-58
2022/09/12 08:26:29;;;;;;;2.53;1.90;;;21.50;65.10;;;;;;5021586;28;43508;-58
2022/09/12 08:28:57;;;;;;;2.10;2.00;;;21.40;65.00;;;;;;5021222;28;45020;-57
2022/09/12 08:31:26;;;;;;;1.90;1.80;;;21.40;65.00;;;;;;5022440;28;43337;-57
2022/09/12 08:33:59;;;;;;;1.80;1.70;;;21.50;65.00;;;;;;5021528;28;43366;-57
2022/09/12 08:36:28;;;;;;;1.80;1.70;;;21.40;65.00;;;;;;5021574;28;43484;-57
2022/09/12 08:39:01;;;;;;;2.05;1.95;;;21.50;65.00;;;;;;5021864;28;45037;-57
2022/09/12 08:41:39;;;;;;;2.50;2.10;;;21.50;65.10;;;;;;5021210;28;43410;-57
2022/09/12 08:44:44;;;;;;;1.90;1.80;;;21.50;65.10;;;;;;5021970;28;43964;-57
2022/09/12 08:47:31;;;;;;;2.03;1.90;;;21.50;65.10;;;;;;5049054;28;43412;-57
2022/09/12 08:50:01;;;;;;;1.85;1.75;;;21.40;65.00;;;;;;5021070;28;44883;-57
2022/09/12 08:52:37;;;;;;;2.65;2.08;;;21.40;65.10;;;;;;5021783;28;43790;-56
2022/09/12 08:55:24;;;;;;;3.10;2.42;;;21.40;65.10;;;;;;5020883;28;44080;-57
2022/09/12 08:57:52;;;;;;;2.75;2.55;;;21.40;65.20;;;;;;5022672;28;43426;-57
2022/09/12 09:00:20;;;;;;;3.30;2.38;;;21.40;65.10;;;;;;5021723;28;43788;-57
2022/09/12 09:03:27;;;;;;;3.67;2.60;;;21.50;65.20;;;;;;5020896;28;43419;-57
2022/09/12 09:06:17;;;;;;;3.45;2.95;;;21.40;65.20;;;;;;5019626;28;43474;-57
2022/09/12 09:09:04;;;;;;;4.05;3.10;;;21.40;65.20;;;;;;5014021;28;43427;-57
2022/09/12 09:11:55;;;;;;;3.58;2.92;;;21.40;65.20;;;;;;5021493;28;43796;-57
2022/09/12 09:14:50;;;;;;;3.28;2.85;;;21.40;65.30;;;;;;5020844;28;43669;-58
2022/09/12 09:17:42;;;;;;;5.43;3.33;;;21.40;65.20;;;;;;5024302;28;43519;-57
2022/09/12 09:20:36;;;;;;;5.13;4.00;;;21.50;65.30;;;;;;5023994;28;43444;-57
2022/09/12 09:23:24;;;;;;;6.20;3.95;;;21.40;65.20;;;;;;5024744;28;45120;-57
2022/09/12 09:26:04;;;;;;;5.25;4.40;;;21.40;65.30;;;;;;5023326;28;43420;-57
2022/09/12 09:28:53;;;;;;;6.68;4.18;;;21.40;65.40;;;;;;5024700;28;43360;-57
2022/09/12 09:31:23;;;;;;;7.45;4.30;;;21.40;65.30;;;;;;5024451;28;43368;-57
2022/09/12 09:33:54;;;;;;;5.85;4.53;;;21.40;65.30;;;;;;5023928;28;44090;-58
2022/09/12 09:37:14;;;;;;;5.88;4.50;;;21.50;65.50;;;;;;5024119;28;43992;-57
2022/09/12 09:39:58;;;;;;;6.55;4.80;;;21.50;65.40;;;;;;5037195;28;43391;-58
2022/09/12 09:42:47;;;;;;;6.80;4.78;;;21.40;65.40;;;;;;5021291;28;43556;-58
2022/09/12 09:45:22;;;;;;;6.47;4.13;;;21.50;65.40;;;;;;5022548;28;43875;-57
2022/09/12 09:48:09;;;;;;;7.72;4.70;;;21.50;65.30;;;;;;5022711;28;43438;-58
2022/09/12 09:50:47;;;;;;;8.65;5.35;;;21.50;65.30;;;;;;5023224;28;43538;-58
2022/09/12 09:53:44;;;;;;;8.80;5.80;;;21.50;65.30;;;;;;5022453;28;43548;-57
2022/09/12 09:56:32;;;;;;;7.40;5.20;;;21.60;65.40;;;;;;5022064;28;44337;-57
2022/09/12 09:59:10;;;;;;;8.32;5.80;;;21.60;65.40;;;;;;5023989;28;43436;-58
2022/09/12 10:01:53;;;;;;;8.85;5.95;;;21.60;65.30;;;;;;5020207;28;43436;-57
2022/09/12 10:04:26;;;;;;;8.32;5.65;;;21.60;65.40;;;;;;5023680;28;44201;-57
2022/09/12 10:07:00;;;;;;;10.20;6.05;;;21.60;65.20;;;;;;5017999;28;43802;-58
2022/09/12 10:09:33;;;;;;;10.68;7.38;;;21.60;65.30;;;;;;5022859;28;43391;-57
2022/09/12 10:12:23;;;;;;;8.48;6.85;;;21.60;65.40;;;;;;5020172;28;43412;-57
2022/09/12 10:15:03;;;;;;;10.00;6.70;;;21.60;65.30;;;;;;5022933;28;43494;-58
2022/09/12 10:17:39;;;;;;;10.05;6.63;;;21.60;65.30;;;;;;5020870;28;44705;-58
2022/09/12 10:20:43;;;;;;;9.27;6.13;;;21.60;65.40;;;;;;5020849;28;43427;-57
2022/09/12 10:23:22;;;;;;;9.05;6.15;;;21.70;65.20;;;;;;5020960;28;43501;-59
2022/09/12 10:25:59;;;;;;;9.20;7.03;;;21.70;65.40;;;;;;5020433;28;43534;-58
2022/09/12 10:28:38;;;;;;;7.65;5.90;;;21.70;65.20;;;;;;5021563;28;44236;-57
2022/09/12 10:31:08;;;;;;;9.90;6.72;;;21.70;65.30;;;;;;5019899;28;43474;-57
2022/09/12 10:33:52;;;;;;;8.70;6.55;;;21.70;65.20;;;;;;5022080;28;43439;-58
2022/09/12 10:36:21;;;;;;;8.63;6.25;;;21.80;65.10;;;;;;5051270;28;43729;-57
2022/09/12 10:38:51;;;;;;;10.25;7.00;;;21.70;65.20;;;;;;5022266;28;44684;-58
2022/09/12 10:41:20;;;;;;;8.75;6.20;;;21.80;65.20;;;;;;5022588;28;43538;-57
2022/09/12 10:43:48;;;;;;;8.85;6.00;;;21.80;65.20;;;;;;5023212;28;43464;-57
2022/09/12 10:46:26;;;;;;;8.23;6.55;;;21.80;65.10;;;;;;5023312;28;43475;-57
2022/09/12 10:49:21;;;;;;;9.40;6.45;;;21.80;65.10;;;;;;5012393;28;44976;-57
2022/09/12 10:51:50;;;;;;;8.85;6.38;;;21.80;65.00;;;;;;5021635;28;43442;-57
2022/09/12 10:54:22;;;;;;;7.18;5.75;;;21.80;65.10;;;;;;5023365;28;43444;-59
2022/09/12 10:57:23;;;;;;;7.95;6.38;;;21.80;65.00;;;;;;5021480;28;43472;-57
2022/09/12 11:00:09;;;;;;;7.80;6.22;;;21.90;65.00;;;;;;5022672;28;44627;-58
2022/09/12 11:03:21;;;;;;;7.30;5.90;;;21.90;65.10;;;;;;5022706;28;43486;-57
2022/09/12 11:05:57;;;;;;;9.98;6.57;;;21.90;65.10;;;;;;5026354;28;43553;-58
2022/09/12 11:09:03;;;;;;;8.05;6.07;;;21.90;65.10;;;;;;5013225;28;43444;-57
2022/09/12 11:12:09;;;;;;;8.48;6.03;;;21.90;65.10;;;;;;5047051;28;44818;-58
2022/09/12 11:15:11;;;;;;;7.32;6.18;;;22.00;65.20;;;;;;4962474;28;43423;-57
2022/09/12 11:17:57;;;;;;;8.20;6.03;;;22.00;65.10;;;;;;5010126;28;43440;-57
2022/09/12 11:20:56;;;;;;;8.43;6.70;;;22.00;65.00;;;;;;5023102;28;43428;-58
2022/09/12 11:23:51;;;;;;;8.15;6.63;;;22.00;65.00;;;;;;5024061;28;43904;-57
2022/09/12 11:26:56;;;;;;;8.13;6.60;;;22.00;65.00;;;;;;5012887;28;43390;-57
2022/09/12 11:29:57;;;;;;;7.82;6.32;;;22.10;64.90;;;;;;5019080;28;43489;-57
2022/09/12 11:32:30;;;;;;;7.95;6.18;;;22.10;64.90;;;;;;5010766;28;43419;-57
2022/09/12 11:35:29;;;;;;;8.23;6.60;;;22.10;64.80;;;;;;5022222;28;43810;-57
2022/09/12 11:38:10;;;;;;;7.75;6.32;;;22.10;64.80;;;;;;5017235;28;43407;-58
2022/09/12 11:40:55;;;;;;;9.07;6.28;;;22.20;64.90;;;;;;5022933;28;43457;-57
2022/09/12 11:43:29;;;;;;;8.23;6.35;;;22.20;64.90;;;;;;5051936;28;43545;-58
2022/09/12 11:46:05;;;;;;;7.38;6.45;;;22.20;64.90;;;;;;5021431;28;44703;-57
2022/09/12 11:48:54;;;;;;;7.53;6.50;;;22.20;64.80;;;;;;5021855;28;43412;-58
2022/09/12 11:51:47;;;;;;;8.23;6.35;;;22.30;64.90;;;;;;5022461;28;43410;-57
2022/09/12 11:54:35;;;;;;;6.25;5.65;;;22.30;64.90;;;;;;5019945;28;43401;-58
2022/09/12 11:57:29;;;;;;;6.45;5.63;;;22.40;65.00;;;;;;5016873;28;43624;-58
2022/09/12 12:00:05;;;;;;;6.75;5.80;;;22.40;64.90;;;;;;5008794;28;44006;-58
2022/09/12 12:02:54;;;;;;;7.10;5.78;;;22.50;64.90;;;;;;5019179;28;43423;-58
2022/09/12 12:05:28;;;;;;;8.35;5.85;;;22.50;64.90;;;;;;5052984;28;43553;-57
2022/09/12 12:07:59;;;;;;;7.90;5.95;;;22.50;64.80;;;;;;5020935;28;43892;-58
2022/09/12 12:11:02;;;;;;;6.10;5.50;;;22.50;64.70;;;;;;5021975;28;43504;-58
2022/09/12 12:13:48;;;;;;;6.78;5.30;;;22.50;64.70;;;;;;4996024;28;43486;-58
2022/09/12 12:16:46;;;;;;;6.15;5.30;;;22.60;64.80;;;;;;5020029;28;43554;-57
2022/09/12 12:19:14;;;;;;;7.10;6.07;;;22.60;64.70;;;;;;5020072;28;44767;-58
2022/09/12 12:21:46;;;;;;;7.38;6.13;;;22.60;64.70;;;;;;5020877;28;43402;-57
2022/09/12 12:24:22;;;;;;;6.57;5.85;;;22.60;64.60;;;;;;5021690;28;43504;-58
2022/09/12 12:26:53;;;;;;;7.80;6.38;;;22.70;64.60;;;;;;5019095;28;43417;-58
2022/09/12 12:29:22;;;;;;;6.35;5.60;;;22.70;64.60;;;;;;5017145;28;44046;-58
2022/09/12 12:31:58;;;;;;;6.63;5.90;;;22.70;64.50;;;;;;5019855;28;44255;-58
2022/09/12 12:34:31;;;;;;;6.63;5.70;;;22.70;64.40;;;;;;5017953;28;43504;-58
2022/09/12 12:37:19;;;;;;;6.32;5.68;;;22.80;64.50;;;;;;5018986;28;43441;-58
2022/09/12 12:39:49;;;;;;;6.35;5.75;;;22.70;64.40;;;;;;5020508;28;43842;-58
2022/09/12 12:42:35;;;;;;;7.65;5.95;;;22.80;64.40;;;;;;5019000;28;44049;-57
2022/09/12 12:45:25;;;;;;;6.32;5.60;;;22.80;64.40;;;;;;5018866;28;43424;-58
2022/09/12 12:47:58;;;;;;;6.00;5.40;;;22.80;64.40;;;;;;5017670;28;43508;-58
2022/09/12 12:50:28;;;;;;;5.88;5.22;;;22.80;64.30;;;;;;5022019;28;44151;-57
2022/09/12 12:52:59;;;;;;;6.45;5.47;;;22.80;64.40;;;;;;5024222;28;43569;-58
2022/09/12 12:55:42;;;;;;;5.60;5.10;;;22.90;64.30;;;;;;5024240;28;43461;-58
2022/09/12 12:58:33;;;;;;;5.90;5.25;;;22.90;64.30;;;;;;5007616;28;43400;-57
2022/09/12 13:01:16;;;;;;;6.00;5.00;;;22.90;64.30;;;;;;5007062;28;44698;-57
2022/09/12 13:03:58;;;;;;;6.65;5.35;;;22.90;64.30;;;;;;5011273;28;43372;-58
2022/09/12 13:06:36;;;;;;;6.72;5.60;;;22.90;64.30;;;;;;4994599;28;43353;-58
2022/09/12 13:09:14;;;;;;;5.75;5.20;;;22.90;64.30;;;;;;5011581;28;43468;-58
2022/09/12 13:11:42;;;;;;;5.60;4.97;;;22.90;64.30;;;;;;5019502;28;43895;-58
2022/09/12 13:14:36;;;;;;;5.30;4.80;;;22.80;64.30;;;;;;5019033;28;43488;-59
2022/09/12 13:17:06;;;;;;;5.28;4.78;;;22.90;64.20;;;;;;5008800;28;43435;-58
2022/09/12 13:19:37;;;;;;;6.47;4.93;;;22.80;64.20;;;;;;5009797;28;43559;-58
2022/09/12 13:22:08;;;;;;;5.13;4.57;;;22.80;64.20;;;;;;5018620;28;44802;-58
2022/09/12 13:24:47;;;;;;;4.60;4.25;;;22.90;64.30;;;;;;5015800;28;43475;-58
2022/09/12 13:27:24;;;;;;;6.03;4.80;;;22.80;64.30;;;;;;5014921;28;43415;-58
2022/09/12 13:30:13;;;;;;;5.25;4.75;;;22.80;64.20;;;;;;5013444;28;43646;-58
2022/09/12 13:32:42;;;;;;;5.15;4.65;;;22.80;64.30;;;;;;5002176;28;43695;-58